SKU250 SCEL-SCCF
Flight info
| Callsign | SKU250 |
|---|---|
| Flight time | 1h 45m |
| Altitude | 34000 |
| Route | DILOK7B DILOK UQ814 MARGU MARGU3A |
| Aircraft | A21N/M-SDE2E3FGHIRWXY/LB1 |
Departure
| Time | 2026-04-22 00:23 |
|---|---|
| Airport | Comodoro Arturo Merino Benítez International Airport (SCEL) |
Arrival
| Time | 2026-04-22 02:09 |
|---|---|
| Airport | El Loa Airport (SCCF) |
| Time | Latitude | Longitude | Altitude | Speed | Heading |
|---|---|---|---|---|---|
| 2026-04-22 00:04 | -33.39602 | -70.79697 | 1570 ft | 0 kts | 177° |
| 2026-04-22 00:10 | -33.39594 | -70.79697 | 1570 ft | 4 kts | 177° |
| 2026-04-22 00:11 | -33.39567 | -70.79699 | 1570 ft | 4 kts | 177° |
| 2026-04-22 00:11 | -33.39543 | -70.79699 | 1570 ft | 4 kts | 200° |
| 2026-04-22 00:11 | -33.39525 | -70.79681 | 1570 ft | 4 kts | 247° |
| 2026-04-22 00:11 | -33.39520 | -70.79654 | 1570 ft | 1 kts | 267° |
| 2026-04-22 00:14 | -33.39520 | -70.79656 | 1570 ft | 1 kts | 267° |
| 2026-04-22 00:14 | -33.39521 | -70.79674 | 1570 ft | 3 kts | 267° |
| 2026-04-22 00:14 | -33.39522 | -70.79707 | 1570 ft | 5 kts | 266° |
| 2026-04-22 00:15 | -33.39524 | -70.79752 | 1570 ft | 6 kts | 267° |
| 2026-04-22 00:15 | -33.39527 | -70.79810 | 1570 ft | 8 kts | 267° |
| 2026-04-22 00:15 | -33.39530 | -70.79882 | 1570 ft | 9 kts | 267° |
| 2026-04-22 00:15 | -33.39531 | -70.79967 | 1571 ft | 11 kts | 275° |
| 2026-04-22 00:16 | -33.39511 | -70.80028 | 1571 ft | 7 kts | 314° |
| 2026-04-22 00:16 | -33.39463 | -70.80046 | 1571 ft | 8 kts | 355° |
| 2026-04-22 00:16 | -33.39399 | -70.80052 | 1571 ft | 10 kts | 357° |
| 2026-04-22 00:16 | -33.39324 | -70.80056 | 1571 ft | 12 kts | 358° |
| 2026-04-22 00:17 | -33.39239 | -70.80059 | 1572 ft | 13 kts | 358° |
| 2026-04-22 00:17 | -33.39143 | -70.80064 | 1572 ft | 14 kts | 357° |
| 2026-04-22 00:17 | -33.39040 | -70.80069 | 1572 ft | 16 kts | 358° |
| 2026-04-22 00:17 | -33.38926 | -70.80076 | 1572 ft | 17 kts | 356° |
| 2026-04-22 00:18 | -33.38804 | -70.80085 | 1572 ft | 18 kts | 356° |
| 2026-04-22 00:18 | -33.38676 | -70.80092 | 1572 ft | 19 kts | 358° |
| 2026-04-22 00:18 | -33.38540 | -70.80099 | 1572 ft | 20 kts | 357° |
| 2026-04-22 00:18 | -33.38398 | -70.80106 | 1572 ft | 21 kts | 357° |
| 2026-04-22 00:19 | -33.38250 | -70.80115 | 1571 ft | 22 kts | 358° |
| 2026-04-22 00:19 | -33.38095 | -70.80122 | 1571 ft | 23 kts | 357° |
| 2026-04-22 00:19 | -33.37934 | -70.80131 | 1571 ft | 24 kts | 357° |
| 2026-04-22 00:19 | -33.37790 | -70.80139 | 1571 ft | 17 kts | 357° |
| 2026-04-22 00:20 | -33.37667 | -70.80145 | 1572 ft | 18 kts | 358° |
| 2026-04-22 00:20 | -33.37537 | -70.80151 | 1572 ft | 19 kts | 357° |
| 2026-04-22 00:20 | -33.37400 | -70.80158 | 1572 ft | 20 kts | 357° |
| 2026-04-22 00:20 | -33.37293 | -70.80164 | 1572 ft | 14 kts | 357° |
| 2026-04-22 00:21 | -33.37210 | -70.80168 | 1572 ft | 11 kts | 357° |
| 2026-04-22 00:21 | -33.37136 | -70.80194 | 1573 ft | 12 kts | 322° |
| 2026-04-22 00:21 | -33.37105 | -70.80291 | 1577 ft | 12 kts | 260° |
| 2026-04-22 00:21 | -33.37135 | -70.80354 | 1580 ft | 10 kts | 218° |
| 2026-04-22 00:22 | -33.37171 | -70.80372 | 1579 ft | 4 kts | 182° |
| 2026-04-22 00:22 | -33.37220 | -70.80373 | 1578 ft | 24 kts | 180° |
| 2026-04-22 00:22 | -33.37624 | -70.80349 | 1578 ft | 91 kts | 178° |
| 2026-04-22 00:22 | -33.38451 | -70.80306 | 1578 ft | 141 kts | 178° |
| 2026-04-22 00:23 | -33.39550 | -70.80251 | 1624 ft | 173 kts | 176° |
| 2026-04-22 00:23 | -33.40771 | -70.80173 | 2130 ft | 177 kts | 176° |
| 2026-04-22 00:23 | -33.41991 | -70.80161 | 2788 ft | 175 kts | 179° |
| 2026-04-22 00:23 | -33.43219 | -70.80136 | 3312 ft | 182 kts | 178° |
| 2026-04-22 00:24 | -33.44537 | -70.80090 | 3702 ft | 196 kts | 178° |
| 2026-04-22 00:24 | -33.45963 | -70.80036 | 4080 ft | 218 kts | 179° |
| 2026-04-22 00:24 | -33.47521 | -70.80448 | 4356 ft | 248 kts | 209° |
| 2026-04-22 00:24 | -33.48772 | -70.81978 | 4777 ft | 270 kts | 243° |
| 2026-04-22 00:25 | -33.49156 | -70.84188 | 5444 ft | 276 kts | 276° |
| 2026-04-22 00:25 | -33.48849 | -70.86447 | 6337 ft | 275 kts | 283° |
| 2026-04-22 00:25 | -33.48495 | -70.88698 | 7198 ft | 276 kts | 282° |
| 2026-04-22 00:25 | -33.48180 | -70.90966 | 8011 ft | 276 kts | 282° |
| 2026-04-22 00:26 | -33.47897 | -70.93243 | 8614 ft | 276 kts | 282° |
| 2026-04-22 00:26 | -33.47393 | -70.95444 | 8924 ft | 272 kts | 298° |
| 2026-04-22 00:26 | -33.46246 | -70.97215 | 9006 ft | 270 kts | 322° |
| 2026-04-22 00:26 | -33.44589 | -70.98219 | 9385 ft | 269 kts | 345° |
| 2026-04-22 00:27 | -33.42713 | -70.98382 | 10096 ft | 275 kts | 1° |
| 2026-04-22 00:27 | -33.40740 | -70.98158 | 10503 ft | 295 kts | 4° |
| 2026-04-22 00:27 | -33.38618 | -70.97904 | 10797 ft | 317 kts | 3° |
| 2026-04-22 00:27 | -33.36349 | -70.97654 | 11060 ft | 338 kts | 2° |
| 2026-04-22 00:28 | -33.33985 | -70.97412 | 11531 ft | 349 kts | 2° |
| 2026-04-22 00:28 | -33.31552 | -70.97171 | 12212 ft | 352 kts | 2° |
| 2026-04-22 00:28 | -33.29103 | -70.96935 | 12864 ft | 354 kts | 1° |
| 2026-04-22 00:28 | -33.26628 | -70.96702 | 13552 ft | 358 kts | 1° |
| 2026-04-22 00:29 | -33.24129 | -70.96467 | 14184 ft | 362 kts | 1° |
| 2026-04-22 00:29 | -33.21624 | -70.95955 | 14765 ft | 371 kts | 13° |
| 2026-04-22 00:29 | -33.19257 | -70.94633 | 15344 ft | 383 kts | 28° |
| 2026-04-22 00:29 | -33.17065 | -70.92782 | 15907 ft | 389 kts | 32° |
| 2026-04-22 00:30 | -33.14879 | -70.90847 | 16439 ft | 393 kts | 32° |
| 2026-04-22 00:30 | -33.12660 | -70.88902 | 16963 ft | 398 kts | 31° |
| 2026-04-22 00:30 | -33.10404 | -70.86950 | 17459 ft | 402 kts | 31° |
| 2026-04-22 00:30 | -33.08125 | -70.85000 | 17978 ft | 405 kts | 31° |
| 2026-04-22 00:31 | -33.05810 | -70.83038 | 18479 ft | 410 kts | 30° |
| 2026-04-22 00:31 | -33.03491 | -70.81029 | 18913 ft | 415 kts | 31° |
| 2026-04-22 00:31 | -33.01164 | -70.78960 | 19355 ft | 418 kts | 31° |
| 2026-04-22 00:31 | -32.98822 | -70.76890 | 19817 ft | 421 kts | 31° |
| 2026-04-22 00:32 | -32.96461 | -70.74795 | 20281 ft | 425 kts | 31° |
| 2026-04-22 00:32 | -32.94069 | -70.72694 | 20726 ft | 428 kts | 30° |
| 2026-04-22 00:32 | -32.91532 | -70.70872 | 21184 ft | 424 kts | 19° |
| 2026-04-22 00:32 | -32.88811 | -70.69760 | 21627 ft | 417 kts | 6° |
| 2026-04-22 00:33 | -32.85946 | -70.69357 | 22099 ft | 413 kts | 357° |
| 2026-04-22 00:33 | -32.83068 | -70.69204 | 22592 ft | 415 kts | 356° |
| 2026-04-22 00:33 | -32.80174 | -70.69061 | 23075 ft | 418 kts | 356° |
| 2026-04-22 00:33 | -32.77255 | -70.68895 | 23564 ft | 421 kts | 356° |
| 2026-04-22 00:34 | -32.74309 | -70.68710 | 23986 ft | 424 kts | 356° |
| 2026-04-22 00:34 | -32.71349 | -70.68514 | 24404 ft | 426 kts | 356° |
| 2026-04-22 00:34 | -32.68383 | -70.68316 | 24823 ft | 427 kts | 356° |
| 2026-04-22 00:34 | -32.65412 | -70.68117 | 25236 ft | 428 kts | 356° |
| 2026-04-22 00:35 | -32.62428 | -70.67919 | 25648 ft | 430 kts | 356° |
| 2026-04-22 00:35 | -32.59432 | -70.67722 | 26055 ft | 431 kts | 356° |
| 2026-04-22 00:35 | -32.56462 | -70.67526 | 26456 ft | 433 kts | 355° |
| 2026-04-22 00:35 | -32.53450 | -70.67325 | 26845 ft | 435 kts | 355° |
| 2026-04-22 00:36 | -32.50417 | -70.67122 | 27218 ft | 437 kts | 355° |
| 2026-04-22 00:36 | -32.47367 | -70.66920 | 27599 ft | 439 kts | 355° |
| 2026-04-22 00:36 | -32.44311 | -70.66718 | 27976 ft | 441 kts | 355° |
| 2026-04-22 00:36 | -32.41247 | -70.66515 | 28445 ft | 439 kts | 355° |
| 2026-04-22 00:37 | -32.38207 | -70.66313 | 28964 ft | 436 kts | 355° |
| 2026-04-22 00:37 | -32.35184 | -70.66114 | 29500 ft | 434 kts | 355° |
| 2026-04-22 00:37 | -32.32181 | -70.65917 | 30005 ft | 432 kts | 355° |
| 2026-04-22 00:37 | -32.29185 | -70.65717 | 30470 ft | 429 kts | 354° |
| 2026-04-22 00:38 | -32.26218 | -70.65519 | 30852 ft | 427 kts | 354° |
| 2026-04-22 00:38 | -32.23248 | -70.65324 | 31177 ft | 426 kts | 354° |
| 2026-04-22 00:38 | -32.20289 | -70.65128 | 31477 ft | 426 kts | 354° |
| 2026-04-22 00:38 | -32.17332 | -70.64934 | 31717 ft | 424 kts | 354° |
| 2026-04-22 00:39 | -32.14388 | -70.64742 | 31938 ft | 425 kts | 353° |
| 2026-04-22 00:39 | -32.11469 | -70.64550 | 32187 ft | 425 kts | 353° |
| 2026-04-22 00:39 | -32.08522 | -70.64357 | 32443 ft | 424 kts | 353° |
| 2026-04-22 00:39 | -32.05547 | -70.64163 | 32759 ft | 423 kts | 353° |
| 2026-04-22 00:40 | -32.02651 | -70.63976 | 33110 ft | 422 kts | 352° |
| 2026-04-22 00:40 | -31.99726 | -70.63785 | 33337 ft | 420 kts | 353° |
| 2026-04-22 00:40 | -31.96806 | -70.63591 | 33521 ft | 419 kts | 352° |
| 2026-04-22 00:40 | -31.93893 | -70.63405 | 33712 ft | 420 kts | 352° |
| 2026-04-22 00:41 | -31.90978 | -70.63262 | 33907 ft | 418 kts | 351° |
| 2026-04-22 00:41 | -31.88065 | -70.63133 | 34139 ft | 418 kts | 351° |
| 2026-04-22 00:41 | -31.85173 | -70.63006 | 34202 ft | 416 kts | 351° |
| 2026-04-22 00:42 | -31.79397 | -70.62755 | 34194 ft | 415 kts | 351° |
| 2026-04-22 00:42 | -31.73647 | -70.62504 | 34187 ft | 416 kts | 351° |
| 2026-04-22 00:43 | -31.67858 | -70.62253 | 34194 ft | 416 kts | 351° |
| 2026-04-22 00:43 | -31.62066 | -70.62001 | 34184 ft | 416 kts | 350° |
| 2026-04-22 00:44 | -31.56279 | -70.61751 | 34186 ft | 416 kts | 351° |
| 2026-04-22 00:44 | -31.50492 | -70.61503 | 34205 ft | 416 kts | 351° |
| 2026-04-22 00:45 | -31.44706 | -70.61255 | 34203 ft | 416 kts | 351° |
| 2026-04-22 00:45 | -31.39894 | -70.61048 | 34207 ft | 416 kts | 350° |
| 2026-04-22 00:46 | -31.34117 | -70.60771 | 34224 ft | 418 kts | 353° |
| 2026-04-22 00:46 | -31.28265 | -70.59581 | 34227 ft | 431 kts | 359° |
| 2026-04-22 00:47 | -31.22405 | -70.58156 | 34232 ft | 430 kts | 359° |
| 2026-04-22 00:47 | -31.16543 | -70.56775 | 34234 ft | 430 kts | 359° |
| 2026-04-22 00:48 | -31.10678 | -70.55401 | 34188 ft | 429 kts | 359° |
| 2026-04-22 00:48 | -31.04825 | -70.54027 | 34205 ft | 429 kts | 359° |
| 2026-04-22 00:49 | -30.98954 | -70.52661 | 34216 ft | 430 kts | 358° |
| 2026-04-22 00:49 | -30.93131 | -70.51303 | 34207 ft | 429 kts | 358° |
| 2026-04-22 00:50 | -30.87267 | -70.49935 | 34201 ft | 430 kts | 358° |
| 2026-04-22 00:50 | -30.81390 | -70.48565 | 34184 ft | 429 kts | 358° |
| 2026-04-22 00:51 | -30.75550 | -70.47204 | 34211 ft | 427 kts | 358° |
| 2026-04-22 00:51 | -30.69699 | -70.45852 | 34217 ft | 428 kts | 358° |
| 2026-04-22 00:52 | -30.63897 | -70.44504 | 34224 ft | 429 kts | 358° |
| 2026-04-22 00:52 | -30.58042 | -70.43146 | 34230 ft | 428 kts | 358° |
| 2026-04-22 00:53 | -30.52200 | -70.41795 | 34227 ft | 428 kts | 358° |
| 2026-04-22 00:53 | -30.46368 | -70.40448 | 34225 ft | 427 kts | 358° |
| 2026-04-22 00:54 | -30.40532 | -70.39100 | 34231 ft | 427 kts | 358° |
| 2026-04-22 00:54 | -30.34710 | -70.37759 | 34233 ft | 427 kts | 358° |
| 2026-04-22 00:55 | -30.28879 | -70.36415 | 34213 ft | 426 kts | 358° |
| 2026-04-22 00:55 | -30.20225 | -70.34423 | 34215 ft | 424 kts | 358° |
| 2026-04-22 00:56 | -30.14430 | -70.33096 | 34245 ft | 425 kts | 358° |
| 2026-04-22 00:56 | -30.08620 | -70.31762 | 34237 ft | 425 kts | 358° |
| 2026-04-22 00:57 | -30.02820 | -70.30435 | 34234 ft | 425 kts | 358° |
| 2026-04-22 00:57 | -29.97014 | -70.29109 | 34217 ft | 427 kts | 358° |
| 2026-04-22 00:58 | -29.91174 | -70.27773 | 34231 ft | 427 kts | 358° |
| 2026-04-22 00:58 | -29.85370 | -70.26449 | 34242 ft | 427 kts | 358° |
| 2026-04-22 00:59 | -29.79540 | -70.25118 | 34241 ft | 427 kts | 358° |
| 2026-04-22 00:59 | -29.73710 | -70.23778 | 34258 ft | 427 kts | 358° |
| 2026-04-22 01:00 | -29.67888 | -70.22455 | 34221 ft | 424 kts | 358° |
| 2026-04-22 01:00 | -29.62093 | -70.21152 | 34262 ft | 425 kts | 358° |
| 2026-04-22 01:01 | -29.56295 | -70.19815 | 34298 ft | 426 kts | 358° |
| 2026-04-22 01:01 | -29.50488 | -70.18508 | 34284 ft | 425 kts | 358° |
| 2026-04-22 01:02 | -29.44696 | -70.17209 | 34300 ft | 425 kts | 358° |
| 2026-04-22 01:02 | -29.38923 | -70.15908 | 34299 ft | 425 kts | 358° |
| 2026-04-22 01:03 | -29.33107 | -70.14596 | 34290 ft | 426 kts | 358° |
| 2026-04-22 01:03 | -29.27302 | -70.13286 | 34293 ft | 425 kts | 358° |
| 2026-04-22 01:04 | -29.21498 | -70.11976 | 34279 ft | 425 kts | 358° |
| 2026-04-22 01:04 | -29.15697 | -70.10669 | 34258 ft | 425 kts | 358° |
| 2026-04-22 01:05 | -29.09904 | -70.09366 | 34260 ft | 424 kts | 358° |
| 2026-04-22 01:05 | -29.04117 | -70.08065 | 34253 ft | 423 kts | 358° |
| 2026-04-22 01:06 | -28.98346 | -70.06773 | 34242 ft | 422 kts | 358° |
| 2026-04-22 01:06 | -28.92588 | -70.05485 | 34278 ft | 422 kts | 358° |
| 2026-04-22 01:07 | -28.86812 | -70.04194 | 34256 ft | 423 kts | 358° |
| 2026-04-22 01:07 | -28.81076 | -70.02912 | 34250 ft | 423 kts | 358° |
| 2026-04-22 01:08 | -28.75305 | -70.01622 | 34280 ft | 422 kts | 358° |
| 2026-04-22 01:08 | -28.69543 | -70.00341 | 34277 ft | 421 kts | 358° |
| 2026-04-22 01:09 | -28.63791 | -69.99060 | 34271 ft | 421 kts | 358° |
| 2026-04-22 01:09 | -28.58032 | -69.97780 | 34234 ft | 422 kts | 358° |
| 2026-04-22 01:10 | -28.52276 | -69.96498 | 34247 ft | 421 kts | 358° |
| 2026-04-22 01:10 | -28.46535 | -69.95328 | 34259 ft | 418 kts | 356° |
| 2026-04-22 01:11 | -28.40797 | -69.94247 | 34244 ft | 418 kts | 356° |
| 2026-04-22 01:11 | -28.35084 | -69.93167 | 34239 ft | 419 kts | 356° |
| 2026-04-22 01:12 | -28.29338 | -69.92081 | 34210 ft | 419 kts | 357° |
| 2026-04-22 01:12 | -28.23599 | -69.90995 | 34245 ft | 418 kts | 357° |
| 2026-04-22 01:13 | -28.17862 | -69.89907 | 34218 ft | 418 kts | 357° |
| 2026-04-22 01:13 | -28.12130 | -69.88812 | 34238 ft | 417 kts | 357° |
| 2026-04-22 01:14 | -28.06392 | -69.87742 | 34214 ft | 418 kts | 357° |
| 2026-04-22 01:14 | -28.00660 | -69.86668 | 34153 ft | 417 kts | 357° |
| 2026-04-22 01:15 | -27.94928 | -69.85590 | 34198 ft | 416 kts | 356° |
| 2026-04-22 01:15 | -27.89214 | -69.84517 | 34199 ft | 417 kts | 356° |
| 2026-04-22 01:16 | -27.83533 | -69.83455 | 34175 ft | 416 kts | 356° |
| 2026-04-22 01:16 | -27.77834 | -69.82385 | 34178 ft | 415 kts | 356° |
| 2026-04-22 01:17 | -27.72114 | -69.81315 | 34128 ft | 417 kts | 357° |
| 2026-04-22 01:17 | -27.66363 | -69.80244 | 34160 ft | 419 kts | 357° |
| 2026-04-22 01:18 | -27.60607 | -69.79172 | 34191 ft | 419 kts | 357° |
| 2026-04-22 01:18 | -27.54886 | -69.78110 | 34198 ft | 418 kts | 357° |
| 2026-04-22 01:19 | -27.49134 | -69.76751 | 34199 ft | 426 kts | 2° |
| 2026-04-22 01:19 | -27.43381 | -69.75089 | 34154 ft | 427 kts | 2° |
| 2026-04-22 01:20 | -27.37637 | -69.73449 | 34175 ft | 426 kts | 2° |
| 2026-04-22 01:20 | -27.31881 | -69.71824 | 34184 ft | 425 kts | 2° |
| 2026-04-22 01:21 | -27.26179 | -69.70210 | 34179 ft | 425 kts | 2° |
| 2026-04-22 01:21 | -27.20442 | -69.68582 | 34179 ft | 424 kts | 2° |
| 2026-04-22 01:22 | -27.14706 | -69.66960 | 34178 ft | 425 kts | 2° |
| 2026-04-22 01:22 | -27.08984 | -69.65334 | 34203 ft | 425 kts | 2° |
| 2026-04-22 01:23 | -27.03248 | -69.63719 | 34213 ft | 425 kts | 2° |
| 2026-04-22 01:23 | -26.97537 | -69.62108 | 34213 ft | 425 kts | 2° |
| 2026-04-22 01:24 | -26.91812 | -69.60494 | 34210 ft | 424 kts | 2° |
| 2026-04-22 01:24 | -26.86079 | -69.58872 | 34221 ft | 425 kts | 2° |
| 2026-04-22 01:25 | -26.80343 | -69.57270 | 34216 ft | 425 kts | 2° |
| 2026-04-22 01:25 | -26.74597 | -69.55657 | 34213 ft | 426 kts | 2° |
| 2026-04-22 01:26 | -26.68856 | -69.54048 | 34209 ft | 425 kts | 2° |
| 2026-04-22 01:26 | -26.63110 | -69.52439 | 34233 ft | 426 kts | 2° |
| 2026-04-22 01:27 | -26.57395 | -69.50840 | 34251 ft | 426 kts | 2° |
| 2026-04-22 01:27 | -26.51637 | -69.49229 | 34232 ft | 426 kts | 3° |
| 2026-04-22 01:28 | -26.45896 | -69.47620 | 34241 ft | 425 kts | 3° |
| 2026-04-22 01:28 | -26.40155 | -69.46018 | 34236 ft | 425 kts | 2° |
| 2026-04-22 01:29 | -26.34407 | -69.44417 | 34229 ft | 425 kts | 2° |
| 2026-04-22 01:29 | -26.28705 | -69.42829 | 34225 ft | 425 kts | 2° |
| 2026-04-22 01:30 | -26.22960 | -69.41229 | 34205 ft | 425 kts | 3° |
| 2026-04-22 01:30 | -26.17214 | -69.39632 | 34206 ft | 426 kts | 3° |
| 2026-04-22 01:31 | -26.11458 | -69.38037 | 34252 ft | 426 kts | 3° |
| 2026-04-22 01:31 | -26.05711 | -69.36443 | 34251 ft | 425 kts | 3° |
| 2026-04-22 01:32 | -25.99966 | -69.34852 | 34256 ft | 425 kts | 3° |
| 2026-04-22 01:32 | -25.94219 | -69.33263 | 34213 ft | 425 kts | 3° |
| 2026-04-22 01:33 | -25.88462 | -69.31675 | 34244 ft | 426 kts | 4° |
| 2026-04-22 01:33 | -25.82754 | -69.30088 | 34255 ft | 425 kts | 4° |
| 2026-04-22 01:34 | -25.77000 | -69.28510 | 34257 ft | 426 kts | 4° |
| 2026-04-22 01:34 | -25.72224 | -69.27194 | 34257 ft | 426 kts | 4° |
| 2026-04-22 01:35 | -25.66470 | -69.25605 | 34303 ft | 426 kts | 4° |
| 2026-04-22 01:35 | -25.60710 | -69.24017 | 34291 ft | 426 kts | 4° |
| 2026-04-22 01:36 | -25.54944 | -69.22730 | 34301 ft | 420 kts | 359° |
| 2026-04-22 01:36 | -25.49180 | -69.21734 | 34304 ft | 419 kts | 359° |
| 2026-04-22 01:37 | -25.43415 | -69.20725 | 34300 ft | 419 kts | 359° |
| 2026-04-22 01:37 | -25.37650 | -69.19717 | 34305 ft | 419 kts | 359° |
| 2026-04-22 01:38 | -25.31874 | -69.18709 | 34280 ft | 422 kts | 0° |
| 2026-04-22 01:38 | -25.26107 | -69.17700 | 34288 ft | 422 kts | 0° |
| 2026-04-22 01:39 | -25.20308 | -69.16687 | 34289 ft | 422 kts | 0° |
| 2026-04-22 01:39 | -25.14502 | -69.15670 | 34284 ft | 422 kts | 0° |
| 2026-04-22 01:40 | -25.08687 | -69.14658 | 34279 ft | 422 kts | 0° |
| 2026-04-22 01:40 | -25.02880 | -69.13642 | 34254 ft | 422 kts | 0° |
| 2026-04-22 01:41 | -24.97068 | -69.12631 | 34277 ft | 423 kts | 0° |
| 2026-04-22 01:41 | -24.91258 | -69.11619 | 34277 ft | 423 kts | 0° |
| 2026-04-22 01:42 | -24.85435 | -69.10612 | 34260 ft | 423 kts | 0° |
| 2026-04-22 01:42 | -24.79660 | -69.09609 | 34257 ft | 423 kts | 0° |
| 2026-04-22 01:43 | -24.73845 | -69.08589 | 34218 ft | 423 kts | 1° |
| 2026-04-22 01:43 | -24.68030 | -69.07545 | 34232 ft | 423 kts | 1° |
| 2026-04-22 01:44 | -24.62216 | -69.06509 | 34236 ft | 423 kts | 1° |
| 2026-04-22 01:44 | -24.56399 | -69.05472 | 34223 ft | 423 kts | 1° |
| 2026-04-22 01:45 | -24.50583 | -69.04442 | 34221 ft | 423 kts | 1° |
| 2026-04-22 01:45 | -24.44759 | -69.03408 | 34208 ft | 423 kts | 1° |
| 2026-04-22 01:46 | -24.38972 | -69.02383 | 34199 ft | 425 kts | 2° |
| 2026-04-22 01:46 | -24.33123 | -69.01342 | 34200 ft | 425 kts | 1° |
| 2026-04-22 01:47 | -24.27276 | -69.00311 | 34200 ft | 425 kts | 1° |
| 2026-04-22 01:47 | -24.21423 | -68.99275 | 34194 ft | 425 kts | 2° |
| 2026-04-22 01:48 | -24.15587 | -68.98240 | 34196 ft | 425 kts | 1° |
| 2026-04-22 01:48 | -24.09784 | -68.97217 | 34173 ft | 424 kts | 2° |
| 2026-04-22 01:49 | -24.03950 | -68.96189 | 34185 ft | 424 kts | 2° |
| 2026-04-22 01:49 | -24.01049 | -68.95677 | 33975 ft | 418 kts | 2° |
| 2026-04-22 01:49 | -23.98162 | -68.95170 | 33677 ft | 422 kts | 2° |
| 2026-04-22 01:50 | -23.95249 | -68.94660 | 33409 ft | 424 kts | 2° |
| 2026-04-22 01:50 | -23.92368 | -68.94153 | 33157 ft | 426 kts | 2° |
| 2026-04-22 01:50 | -23.89435 | -68.93636 | 32905 ft | 428 kts | 2° |
| 2026-04-22 01:50 | -23.86487 | -68.93116 | 32641 ft | 429 kts | 2° |
| 2026-04-22 01:51 | -23.83532 | -68.92597 | 32392 ft | 431 kts | 2° |
| 2026-04-22 01:51 | -23.80566 | -68.92077 | 32169 ft | 432 kts | 2° |
| 2026-04-22 01:51 | -23.77583 | -68.91556 | 31920 ft | 434 kts | 2° |
| 2026-04-22 01:51 | -23.74596 | -68.91031 | 31674 ft | 436 kts | 2° |
| 2026-04-22 01:52 | -23.71595 | -68.90503 | 31437 ft | 437 kts | 2° |
| 2026-04-22 01:52 | -23.68593 | -68.89976 | 31195 ft | 439 kts | 2° |
| 2026-04-22 01:52 | -23.65587 | -68.89446 | 30705 ft | 436 kts | 2° |
| 2026-04-22 01:52 | -23.62601 | -68.88924 | 30084 ft | 433 kts | 2° |
| 2026-04-22 01:53 | -23.59628 | -68.88401 | 29377 ft | 432 kts | 2° |
| 2026-04-22 01:53 | -23.56663 | -68.87881 | 28727 ft | 431 kts | 2° |
| 2026-04-22 01:53 | -23.53749 | -68.87370 | 28139 ft | 428 kts | 2° |
| 2026-04-22 01:53 | -23.50816 | -68.86860 | 27547 ft | 425 kts | 3° |
| 2026-04-22 01:54 | -23.47901 | -68.86353 | 26986 ft | 423 kts | 3° |
| 2026-04-22 01:54 | -23.45001 | -68.85847 | 26371 ft | 422 kts | 4° |
| 2026-04-22 01:54 | -23.42102 | -68.85341 | 25806 ft | 420 kts | 4° |
| 2026-04-22 01:54 | -23.39225 | -68.84836 | 25258 ft | 418 kts | 4° |
| 2026-04-22 01:55 | -23.36357 | -68.84336 | 24679 ft | 416 kts | 4° |
| 2026-04-22 01:55 | -23.33506 | -68.83829 | 24110 ft | 414 kts | 5° |
| 2026-04-22 01:55 | -23.30677 | -68.83281 | 23505 ft | 411 kts | 6° |
| 2026-04-22 01:55 | -23.27864 | -68.82727 | 22862 ft | 410 kts | 6° |
| 2026-04-22 01:56 | -23.25059 | -68.82180 | 22269 ft | 409 kts | 6° |
| 2026-04-22 01:56 | -23.22294 | -68.81641 | 21669 ft | 409 kts | 6° |
| 2026-04-22 01:56 | -23.19500 | -68.81098 | 21075 ft | 407 kts | 6° |
| 2026-04-22 01:56 | -23.16716 | -68.80563 | 20513 ft | 405 kts | 7° |
| 2026-04-22 01:57 | -23.13944 | -68.80030 | 19996 ft | 403 kts | 7° |
| 2026-04-22 01:57 | -23.11191 | -68.79499 | 19468 ft | 400 kts | 7° |
| 2026-04-22 01:57 | -23.08482 | -68.78973 | 19161 ft | 389 kts | 7° |
| 2026-04-22 01:57 | -23.05858 | -68.78464 | 18953 ft | 376 kts | 7° |
| 2026-04-22 01:58 | -23.03331 | -68.77977 | 18788 ft | 362 kts | 7° |
| 2026-04-22 01:58 | -23.00894 | -68.77505 | 18640 ft | 349 kts | 7° |
| 2026-04-22 01:58 | -22.98549 | -68.77048 | 18502 ft | 336 kts | 7° |
| 2026-04-22 01:58 | -22.96297 | -68.76535 | 18284 ft | 326 kts | 9° |
| 2026-04-22 01:59 | -22.94084 | -68.76002 | 17762 ft | 325 kts | 9° |
| 2026-04-22 01:59 | -22.91879 | -68.75469 | 17185 ft | 325 kts | 10° |
| 2026-04-22 01:59 | -22.89676 | -68.74933 | 16646 ft | 324 kts | 11° |
| 2026-04-22 01:59 | -22.87483 | -68.74400 | 16118 ft | 323 kts | 11° |
| 2026-04-22 02:00 | -22.85298 | -68.73869 | 15603 ft | 322 kts | 11° |
| 2026-04-22 02:00 | -22.83121 | -68.73342 | 15136 ft | 319 kts | 12° |
| 2026-04-22 02:00 | -22.80965 | -68.72821 | 14737 ft | 315 kts | 12° |
| 2026-04-22 02:00 | -22.78837 | -68.72308 | 14371 ft | 311 kts | 13° |
| 2026-04-22 02:01 | -22.76745 | -68.71802 | 14030 ft | 306 kts | 13° |
| 2026-04-22 02:01 | -22.74703 | -68.71308 | 13671 ft | 304 kts | 13° |
| 2026-04-22 02:01 | -22.72644 | -68.70810 | 13346 ft | 303 kts | 13° |
| 2026-04-22 02:01 | -22.70590 | -68.70314 | 13040 ft | 300 kts | 13° |
| 2026-04-22 02:02 | -22.68587 | -68.69831 | 12920 ft | 287 kts | 13° |
| 2026-04-22 02:02 | -22.66696 | -68.69376 | 12879 ft | 270 kts | 13° |
| 2026-04-22 02:02 | -22.64926 | -68.68951 | 12848 ft | 248 kts | 13° |
| 2026-04-22 02:02 | -22.63321 | -68.68563 | 12901 ft | 232 kts | 13° |
| 2026-04-22 02:03 | -22.61733 | -68.68183 | 12887 ft | 235 kts | 11° |
| 2026-04-22 02:03 | -22.60113 | -68.67980 | 12703 ft | 233 kts | 5° |
| 2026-04-22 02:03 | -22.58500 | -68.67860 | 12347 ft | 233 kts | 4° |
| 2026-04-22 02:03 | -22.56880 | -68.67737 | 11972 ft | 233 kts | 4° |
| 2026-04-22 02:04 | -22.53665 | -68.67707 | 11327 ft | 232 kts | 346° |
| 2026-04-22 02:04 | -22.52201 | -68.68344 | 11318 ft | 232 kts | 322° |
| 2026-04-22 02:04 | -22.51292 | -68.69741 | 11084 ft | 229 kts | 286° |
| 2026-04-22 02:05 | -22.51159 | -68.71443 | 10731 ft | 227 kts | 270° |
| 2026-04-22 02:05 | -22.51117 | -68.73153 | 10345 ft | 228 kts | 272° |
| 2026-04-22 02:05 | -22.51046 | -68.74825 | 9982 ft | 216 kts | 272° |
| 2026-04-22 02:05 | -22.50965 | -68.76361 | 9617 ft | 189 kts | 273° |
| 2026-04-22 02:06 | -22.50896 | -68.77661 | 9511 ft | 162 kts | 273° |
| 2026-04-22 02:06 | -22.50828 | -68.78860 | 9493 ft | 160 kts | 274° |
| 2026-04-22 02:06 | -22.50747 | -68.80049 | 9342 ft | 157 kts | 274° |
| 2026-04-22 02:06 | -22.50671 | -68.81127 | 9155 ft | 155 kts | 274° |
| 2026-04-22 02:07 | -22.50594 | -68.82275 | 8918 ft | 152 kts | 274° |
| 2026-04-22 02:07 | -22.50519 | -68.83414 | 8656 ft | 151 kts | 273° |
| 2026-04-22 02:07 | -22.50463 | -68.84551 | 8435 ft | 152 kts | 272° |
| 2026-04-22 02:07 | -22.50379 | -68.85694 | 8339 ft | 153 kts | 275° |
| 2026-04-22 02:08 | -22.50282 | -68.86845 | 8173 ft | 154 kts | 275° |
| 2026-04-22 02:08 | -22.50181 | -68.87996 | 7880 ft | 153 kts | 274° |
| 2026-04-22 02:08 | -22.50095 | -68.89140 | 7625 ft | 149 kts | 274° |
| 2026-04-22 02:08 | -22.50024 | -68.90101 | 7559 ft | 95 kts | 272° |
| 2026-04-22 02:09 | -22.49999 | -68.90492 | 7518 ft | 21 kts | 274° |
| 2026-04-22 02:09 | -22.49989 | -68.90653 | 7521 ft | 22 kts | 274° |
| 2026-04-22 02:09 | -22.49979 | -68.90763 | 7513 ft | 5 kts | 297° |
| 2026-04-22 02:09 | -22.49949 | -68.90789 | 7665 ft | 6 kts | 341° |
| 2026-04-22 02:10 | -22.49900 | -68.90789 | 7506 ft | 8 kts | 4° |
| 2026-04-22 02:10 | -22.49837 | -68.90784 | 7507 ft | 11 kts | 4° |
| 2026-04-22 02:10 | -22.49759 | -68.90778 | 7511 ft | 8 kts | 6° |
| 2026-04-22 02:10 | -22.49724 | -68.90775 | 7506 ft | 5 kts | 5° |
| 2026-04-22 02:11 | -22.49686 | -68.90771 | 7506 ft | 5 kts | 6° |
| 2026-04-22 02:11 | -22.49664 | -68.90766 | 7498 ft | 5 kts | 13° |
| 2026-04-22 02:11 | -22.49623 | -68.90757 | 7513 ft | 0 kts | 8° |
| 2026-04-22 02:11 | -22.49611 | -68.90756 | 7502 ft | 3 kts | 2° |
| 2026-04-22 02:12 | -22.49598 | -68.90756 | 7508 ft | 0 kts | 1° |
| 2026-04-22 02:12 | -22.49595 | -68.90756 | 7514 ft | 0 kts | 360° |